createdAt,value
2022-09-30T00:00:40.652Z,99.90
2022-09-30T00:05:43.700Z,99.90
2022-09-30T00:10:46.732Z,99.90
2022-09-30T00:15:51.207Z,99.90
2022-09-30T00:20:54.631Z,99.90
2022-09-30T00:25:59.875Z,99.90
2022-09-30T00:31:07.403Z,99.90
2022-09-30T00:36:11.313Z,99.90
2022-09-30T00:41:14.487Z,99.90
2022-09-30T00:46:23.826Z,99.90
2022-09-30T00:51:31.091Z,99.90
2022-09-30T00:56:39.443Z,99.90
2022-09-30T01:01:44.505Z,99.90
2022-09-30T01:06:48.230Z,99.90
2022-09-30T01:11:51.307Z,99.90
2022-09-30T01:17:03.255Z,99.90
2022-09-30T01:22:16.887Z,99.90
2022-09-30T01:27:41.776Z,99.90
2022-09-30T01:33:08.667Z,99.90
2022-09-30T01:38:17.600Z,99.90
2022-09-30T01:43:29.780Z,99.90
2022-09-30T01:48:42.548Z,99.90
2022-09-30T01:53:50.053Z,99.90
2022-09-30T01:58:57.273Z,99.90
2022-09-30T02:04:07.226Z,99.90
2022-09-30T02:09:14.924Z,99.90
2022-09-30T02:14:23.424Z,99.90
2022-09-30T02:19:33.581Z,99.90
2022-09-30T02:24:37.788Z,99.90
2022-09-30T02:29:45.781Z,99.90
2022-09-30T02:34:53.629Z,99.90
2022-09-30T02:40:02.464Z,99.90
2022-09-30T02:45:10.314Z,99.90
2022-09-30T02:50:20.382Z,99.90
2022-09-30T02:55:31.695Z,99.90
2022-09-30T03:00:35.047Z,99.90
2022-09-30T03:05:39.956Z,99.90
2022-09-30T03:10:44.031Z,99.90
2022-09-30T03:15:59.712Z,99.90
2022-09-30T03:21:17.597Z,99.90
2022-09-30T03:26:35.058Z,99.90
2022-09-30T03:31:48.148Z,99.90
2022-09-30T03:37:04.321Z,99.90
2022-09-30T03:42:17.266Z,99.90
2022-09-30T03:47:24.619Z,99.90
2022-09-30T03:52:32.199Z,99.90
2022-09-30T03:57:35.326Z,99.90
2022-09-30T04:02:38.437Z,99.90
2022-09-30T04:07:42.891Z,99.90
2022-09-30T04:12:46.187Z,99.90
2022-09-30T04:17:49.638Z,99.90
2022-09-30T04:22:57.475Z,99.90
2022-09-30T04:28:00.960Z,99.90
2022-09-30T04:33:03.970Z,99.90
2022-09-30T04:38:08.406Z,99.90
2022-09-30T04:43:11.453Z,99.90
2022-09-30T04:48:14.894Z,99.90
2022-09-30T04:53:19.451Z,99.90
2022-09-30T04:58:24.582Z,99.90
2022-09-30T05:03:27.712Z,99.90
2022-09-30T05:08:33.844Z,99.90
2022-09-30T05:13:39.897Z,99.90
2022-09-30T05:18:46.230Z,99.90
2022-09-30T05:23:51.100Z,99.90
2022-09-30T05:28:54.354Z,99.90
2022-09-30T05:33:58.336Z,99.90
2022-09-30T05:39:02.962Z,99.90
2022-09-30T05:44:07.216Z,99.90
2022-09-30T05:49:10.544Z,99.90
2022-09-30T05:54:15.137Z,99.90
2022-09-30T05:59:18.985Z,99.90
2022-09-30T06:04:22.726Z,99.90
2022-09-30T06:09:27.206Z,99.90
2022-09-30T06:14:30.434Z,99.90
2022-09-30T06:19:33.513Z,99.90
2022-09-30T06:24:37.875Z,99.90
2022-09-30T06:29:40.957Z,99.90
2022-09-30T06:34:44.916Z,99.90
2022-09-30T06:39:50.747Z,99.90
2022-09-30T06:44:54.368Z,99.90
2022-09-30T06:49:59.148Z,99.90
2022-09-30T06:55:03.943Z,99.90
2022-09-30T07:00:08.374Z,99.90
2022-09-30T07:05:11.418Z,99.90
2022-09-30T07:10:16.291Z,99.90
2022-09-30T07:15:23.248Z,99.90
2022-09-30T07:20:26.334Z,99.90
2022-09-30T07:25:30.695Z,99.90
2022-09-30T07:30:33.742Z,99.90
2022-09-30T07:35:38.118Z,99.90
2022-09-30T07:40:42.678Z,99.90
2022-09-30T07:45:46.117Z,99.90
2022-09-30T07:50:53.491Z,99.90
2022-09-30T07:56:02.225Z,99.10
2022-09-30T08:01:09.407Z,98.50
2022-09-30T08:06:15.053Z,96.70
2022-09-30T08:11:20.082Z,96.80
2022-09-30T08:16:25.277Z,94.80
2022-09-30T08:21:29.437Z,94.20
2022-09-30T08:26:33.930Z,96.30
2022-09-30T08:31:37.481Z,91.70
2022-09-30T08:36:40.705Z,92.90
2022-09-30T08:42:19.179Z,84.70
2022-09-30T08:47:43.021Z,84.90
2022-09-30T08:52:49.907Z,90.00
2022-09-30T08:57:56.426Z,90.20
2022-09-30T09:03:03.257Z,80.10
2022-09-30T09:08:15.747Z,81.80
2022-09-30T09:13:38.563Z,78.60
2022-09-30T09:18:56.474Z,76.80
2022-09-30T09:24:03.040Z,74.00
2022-09-30T09:29:20.553Z,73.50
2022-09-30T09:34:25.584Z,76.70
2022-09-30T09:39:37.924Z,78.80
2022-09-30T09:44:48.308Z,88.80
2022-09-30T09:49:57.713Z,90.30
2022-09-30T09:55:01.187Z,91.10
2022-09-30T10:00:27.178Z,91.00
2022-09-30T10:05:39.781Z,92.10
2022-09-30T10:11:58.819Z,93.60
2022-09-30T10:17:05.171Z,94.40
2022-09-30T10:22:19.569Z,94.00
2022-09-30T10:27:31.131Z,94.40
2022-09-30T10:32:36.834Z,93.30
2022-09-30T10:37:51.639Z,93.30
2022-09-30T10:42:55.411Z,91.90
2022-09-30T10:54:52.156Z,89.40
2022-09-30T11:00:00.726Z,81.50
2022-09-30T11:05:13.434Z,73.40
2022-09-30T11:10:32.967Z,74.00
2022-09-30T11:15:44.834Z,79.50
2022-09-30T11:20:54.414Z,81.50
2022-09-30T11:26:05.353Z,82.60
2022-09-30T11:31:16.092Z,80.40
2022-09-30T11:36:31.414Z,84.20
2022-09-30T11:41:39.511Z,81.60
2022-09-30T11:47:01.533Z,81.10
2022-09-30T11:52:14.088Z,78.00
2022-09-30T11:57:27.057Z,76.70
2022-09-30T12:02:37.753Z,73.90
2022-09-30T12:07:46.333Z,70.30
2022-09-30T12:12:56.167Z,67.10
2022-09-30T12:18:01.880Z,63.50
2022-09-30T12:23:16.852Z,67.60
2022-09-30T12:28:43.515Z,72.60
2022-09-30T12:33:59.882Z,64.60
2022-09-30T12:39:51.448Z,63.30
2022-09-30T12:45:24.848Z,59.90
2022-09-30T12:50:34.975Z,63.20
2022-09-30T12:55:40.944Z,62.50
2022-09-30T13:01:03.265Z,61.50
2022-09-30T13:06:06.893Z,62.60
2022-09-30T13:11:39.480Z,62.00
2022-09-30T13:17:01.346Z,60.90
2022-09-30T13:22:52.646Z,64.50
2022-09-30T13:28:28.716Z,67.30
2022-09-30T13:33:44.752Z,67.50
2022-09-30T13:39:06.999Z,69.20
2022-09-30T13:44:16.673Z,70.20
2022-09-30T13:49:24.912Z,72.80
2022-09-30T13:54:34.078Z,72.00
2022-09-30T13:59:49.267Z,67.90
2022-09-30T14:05:15.205Z,68.80
2022-09-30T14:10:40.944Z,69.80
2022-09-30T14:16:12.231Z,69.60
2022-09-30T14:21:30.753Z,70.50
2022-09-30T14:26:45.936Z,72.50
2022-09-30T14:31:49.239Z,74.90
2022-09-30T14:36:54.816Z,73.10
2022-09-30T14:57:16.045Z,70.30
2022-09-30T15:09:53.566Z,70.80
2022-09-30T16:07:05.960Z,88.70
2022-09-30T16:12:18.254Z,92.30
2022-09-30T16:17:24.835Z,95.10
2022-09-30T16:22:51.672Z,98.80
2022-09-30T16:27:58.755Z,99.90
2022-09-30T16:33:05.236Z,99.90
2022-09-30T16:38:12.557Z,99.90
2022-09-30T16:43:17.157Z,99.90
2022-09-30T16:48:21.628Z,99.90
2022-09-30T16:53:26.156Z,99.90
2022-09-30T16:58:29.750Z,99.90
2022-09-30T17:03:32.949Z,99.90
2022-09-30T17:08:37.416Z,99.90
2022-09-30T17:13:41.376Z,99.90
2022-09-30T17:18:45.118Z,99.90
2022-09-30T17:23:50.040Z,99.90
2022-09-30T17:28:53.672Z,99.90
2022-09-30T17:34:00.789Z,99.90
2022-09-30T17:39:07.591Z,99.90
2022-09-30T17:44:11.049Z,99.90
2022-09-30T17:49:20.698Z,99.90
2022-09-30T17:54:29.502Z,99.90
2022-09-30T17:59:32.534Z,99.90
2022-09-30T18:04:37.887Z,99.90
2022-09-30T18:09:42.267Z,99.90
2022-09-30T18:14:46.490Z,99.90
2022-09-30T18:19:50.157Z,99.90
2022-09-30T18:25:13.676Z,99.90
2022-09-30T18:30:18.238Z,99.90
2022-09-30T18:35:24.560Z,99.90
2022-09-30T18:40:30.452Z,99.90
2022-09-30T18:45:38.440Z,99.90
2022-09-30T18:50:42.052Z,99.90
2022-09-30T18:55:47.386Z,99.90
2022-09-30T19:00:50.554Z,99.90
2022-09-30T19:05:54.124Z,99.90
2022-09-30T19:10:58.617Z,99.90
2022-09-30T19:16:04.360Z,99.90
2022-09-30T19:21:12.980Z,99.90
2022-09-30T19:26:17.460Z,99.90
2022-09-30T19:31:21.247Z,99.90
2022-09-30T19:36:27.139Z,99.90
2022-09-30T19:41:32.292Z,99.90
2022-09-30T19:46:36.039Z,99.90
2022-09-30T19:51:39.758Z,99.90
2022-09-30T19:56:44.781Z,99.90
2022-09-30T20:01:48.371Z,99.90
2022-09-30T20:06:53.741Z,99.90
2022-09-30T20:11:58.170Z,99.90
2022-09-30T20:17:01.229Z,99.90
2022-09-30T20:22:05.362Z,99.90
2022-09-30T20:27:10.566Z,99.90
2022-09-30T20:32:14.109Z,99.90
2022-09-30T20:37:17.205Z,99.90
2022-09-30T20:42:21.578Z,99.90
2022-09-30T20:47:24.943Z,99.90
2022-09-30T20:52:29.369Z,99.90
2022-09-30T20:57:33.814Z,99.90
2022-09-30T21:02:36.921Z,99.90
2022-09-30T21:07:40.019Z,99.90
2022-09-30T21:12:45.157Z,99.90
2022-09-30T21:17:48.331Z,99.90
2022-09-30T21:22:53.866Z,99.90
2022-09-30T21:27:58.703Z,99.90
2022-09-30T21:33:01.782Z,99.90
2022-09-30T21:38:04.914Z,99.90
2022-09-30T21:43:09.923Z,99.90
2022-09-30T21:48:13.345Z,99.90
2022-09-30T21:53:16.674Z,99.90
2022-09-30T21:58:21.216Z,99.90
2022-09-30T22:03:24.775Z,99.90
2022-09-30T22:08:33.031Z,99.90
2022-09-30T22:28:40.579Z,99.90
2022-09-30T22:34:03.239Z,99.90
2022-09-30T22:39:06.459Z,99.90
2022-09-30T22:44:11.187Z,99.90
2022-09-30T22:49:14.481Z,99.90
2022-09-30T22:54:17.808Z,99.90
2022-09-30T22:59:23.481Z,99.90
2022-09-30T23:04:26.965Z,99.90
2022-09-30T23:09:31.143Z,99.90
2022-09-30T23:14:35.867Z,99.90
2022-09-30T23:19:38.906Z,99.90
2022-09-30T23:24:42.109Z,99.90
2022-09-30T23:29:47.205Z,99.90
2022-09-30T23:34:50.203Z,99.90
2022-09-30T23:39:53.317Z,99.90
2022-09-30T23:44:58.133Z,99.90
2022-09-30T23:50:01.189Z,99.90
2022-09-30T23:55:05.145Z,99.90
